Terminal Aerodrome Forecast
Issued by NWS Tampa Bay Area, FL

Current Version | Previous Version | Text Only | Print | Product List | Glossary On
Versions: 1 2 3 4 5 6 7 8 9 10 11 12 13 14 15 16 17 18 19 20
000
FTUS42 KTBW 280500 RRA
TAFTPA
TAF
KTPA 280547Z 2806/2824 35005KT P6SM SCT035 OVC050
      TEMPO 2809/2812 1SM BR BKN005
     FM281300 00000KT 1SM BR OVC005
     FM281400 VRB03KT 5SM BR SCT005 BKN015
     FM281700 22006KT P6SM BKN025=

USA.gov is the U.S. government's official web portal to all federal, state and local government web resources and services.